createdAt,value
2023-05-12T00:00:15.144Z,11.36
2023-05-12T00:02:44.733Z,11.41
2023-05-12T00:05:11.678Z,11.42
2023-05-12T00:07:38.532Z,11.38
2023-05-12T00:10:05.797Z,11.33
2023-05-12T00:12:33.154Z,11.40
2023-05-12T00:15:01.296Z,11.40
2023-05-12T00:17:28.855Z,11.49
2023-05-12T00:19:55.863Z,11.49
2023-05-12T00:22:22.781Z,11.48
2023-05-12T00:24:49.763Z,11.50
2023-05-12T00:27:16.607Z,11.52
2023-05-12T00:29:43.553Z,11.54
2023-05-12T00:32:10.620Z,11.55
2023-05-12T00:34:37.635Z,11.57
2023-05-12T00:37:04.994Z,11.58
2023-05-12T00:39:31.975Z,11.61
2023-05-12T00:41:59.984Z,11.63
2023-05-12T00:44:27.432Z,11.63
2023-05-12T00:46:55.398Z,11.61
2023-05-12T00:49:22.425Z,11.60
2023-05-12T00:51:49.640Z,11.60
2023-05-12T00:54:17.353Z,11.57
2023-05-12T00:56:44.332Z,11.56
2023-05-12T00:59:11.147Z,11.56
2023-05-12T01:01:40.976Z,11.54
2023-05-12T01:04:08.553Z,11.54
2023-05-12T01:06:36.135Z,11.53
2023-05-12T01:09:04.022Z,11.59
2023-05-12T01:11:30.915Z,11.63
2023-05-12T01:13:58.004Z,11.57
2023-05-12T01:16:31.568Z,11.55
2023-05-12T01:19:00.257Z,11.53
2023-05-12T01:21:27.529Z,11.50
2023-05-12T01:23:59.532Z,11.50
2023-05-12T01:26:30.085Z,11.48
2023-05-12T01:28:57.903Z,11.51
2023-05-12T01:31:26.836Z,11.55
2023-05-12T01:33:53.874Z,11.60
2023-05-12T01:36:20.833Z,11.62
2023-05-12T01:38:47.923Z,11.59
2023-05-12T01:41:14.798Z,11.57
2023-05-12T01:43:41.683Z,11.60
2023-05-12T01:46:10.896Z,11.61
2023-05-12T01:48:39.411Z,11.58
2023-05-12T01:51:08.835Z,11.63
2023-05-12T01:53:36.492Z,11.66
2023-05-12T01:56:03.795Z,11.69
2023-05-12T01:58:33.133Z,11.59
2023-05-12T02:01:00.677Z,11.64
2023-05-12T02:03:28.435Z,11.60
2023-05-12T02:05:57.214Z,11.56
2023-05-12T02:08:24.326Z,11.66
2023-05-12T02:10:51.240Z,11.69
2023-05-12T02:13:18.120Z,11.66
2023-05-12T02:15:45.655Z,11.63
2023-05-12T02:18:12.588Z,11.66
2023-05-12T02:20:39.646Z,11.67
2023-05-12T02:23:06.640Z,11.67
2023-05-12T02:25:33.864Z,11.67
2023-05-12T02:28:00.761Z,11.71
2023-05-12T02:30:27.630Z,11.75
2023-05-12T02:32:54.511Z,11.80
2023-05-12T02:35:21.570Z,11.84
2023-05-12T02:37:48.794Z,11.84
2023-05-12T02:40:16.539Z,11.84
2023-05-12T02:42:45.604Z,11.84
2023-05-12T02:45:13.206Z,11.84
2023-05-12T02:47:40.660Z,11.87
2023-05-12T02:50:09.791Z,11.87
2023-05-12T02:52:37.229Z,11.87
2023-05-12T02:55:04.921Z,11.89
2023-05-12T02:57:34.566Z,11.89
2023-05-12T03:00:04.231Z,11.94
2023-05-12T03:02:32.214Z,12.04
2023-05-12T03:04:59.608Z,12.04
2023-05-12T03:07:27.108Z,12.00
2023-05-12T03:09:54.858Z,12.06
2023-05-12T03:12:22.556Z,12.07
2023-05-12T03:14:49.694Z,12.10
2023-05-12T03:17:16.623Z,12.11
2023-05-12T03:19:43.607Z,12.17
2023-05-12T03:22:10.522Z,12.18
2023-05-12T03:24:37.455Z,12.18
2023-05-12T03:27:05.662Z,12.24
2023-05-12T03:29:33.110Z,12.29
2023-05-12T03:31:59.986Z,12.29
2023-05-12T03:34:26.916Z,12.31
2023-05-12T03:36:55.551Z,12.32
2023-05-12T03:39:24.976Z,12.33
2023-05-12T03:41:52.872Z,12.33
2023-05-12T03:44:20.164Z,12.37
2023-05-12T03:46:47.134Z,12.37
2023-05-12T03:49:14.004Z,12.40
2023-05-12T03:51:41.273Z,12.41
2023-05-12T03:54:08.310Z,12.42
2023-05-12T03:56:35.734Z,12.40
2023-05-12T03:59:04.098Z,12.45
2023-05-12T04:01:31.073Z,12.52
2023-05-12T04:03:58.432Z,12.54
2023-05-12T04:06:25.457Z,12.54
2023-05-12T04:08:52.523Z,12.55
2023-05-12T04:11:19.375Z,12.54
2023-05-12T04:13:46.217Z,12.53
2023-05-12T04:16:14.277Z,12.50
2023-05-12T04:18:41.252Z,12.49
2023-05-12T04:21:08.190Z,12.49
2023-05-12T04:23:35.092Z,12.51
2023-05-12T04:26:05.357Z,12.53
2023-05-12T04:28:33.130Z,12.56
2023-05-12T04:31:06.152Z,12.61
2023-05-12T04:33:34.386Z,12.64
2023-05-12T04:36:02.695Z,12.71
2023-05-12T04:38:29.758Z,12.77
2023-05-12T04:41:00.729Z,12.83
2023-05-12T04:46:00.216Z,12.82
2023-05-12T04:48:29.302Z,12.86
2023-05-12T04:50:59.959Z,12.90
2023-05-12T04:53:34.585Z,12.91
2023-05-12T04:56:02.041Z,12.94
2023-05-12T04:58:32.103Z,13.05
2023-05-12T05:00:59.965Z,13.15
2023-05-12T05:03:27.129Z,13.24
2023-05-12T05:05:54.964Z,13.31
2023-05-12T05:08:21.923Z,13.41
2023-05-12T05:10:48.850Z,13.55
2023-05-12T05:13:16.609Z,13.64
2023-05-12T05:15:54.605Z,13.59
2023-05-12T05:18:24.410Z,13.72
2023-05-12T05:20:58.346Z,13.82
2023-05-12T05:23:26.743Z,13.84
2023-05-12T05:25:54.236Z,13.88
2023-05-12T05:28:21.167Z,14.00
2023-05-12T05:30:48.161Z,14.10
2023-05-12T05:33:15.458Z,14.02
2023-05-12T05:35:42.608Z,14.01
2023-05-12T05:38:10.966Z,14.13
2023-05-12T05:40:51.658Z,14.32
2023-05-12T05:43:19.735Z,14.32
2023-05-12T05:45:49.453Z,14.23
2023-05-12T05:48:16.582Z,14.30
2023-05-12T05:50:44.092Z,14.30
2023-05-12T05:53:10.987Z,14.41
2023-05-12T05:55:37.896Z,14.51
2023-05-12T05:58:05.449Z,14.66
2023-05-12T06:00:33.081Z,14.73
2023-05-12T06:03:00.139Z,14.77
2023-05-12T06:05:27.244Z,14.82
2023-05-12T06:07:54.168Z,14.88
2023-05-12T06:10:21.815Z,14.87
2023-05-12T06:12:50.327Z,14.92
2023-05-12T06:15:17.736Z,14.86
2023-05-12T06:17:44.949Z,14.99
2023-05-12T06:20:13.496Z,15.06
2023-05-12T06:22:42.404Z,14.97
2023-05-12T06:25:10.372Z,14.91
2023-05-12T06:27:38.622Z,14.94
2023-05-12T06:30:06.765Z,15.00
2023-05-12T06:32:34.001Z,14.91
2023-05-12T06:35:01.128Z,14.93
2023-05-12T06:37:28.402Z,15.04
2023-05-12T06:39:55.290Z,14.99
2023-05-12T06:42:24.444Z,14.96
2023-05-12T06:44:52.354Z,14.97
2023-05-12T06:47:21.189Z,15.08
2023-05-12T06:49:50.092Z,15.14
2023-05-12T06:52:17.448Z,15.24
2023-05-12T06:54:44.429Z,15.35
2023-05-12T06:57:11.296Z,15.37
2023-05-12T06:59:38.189Z,15.38
2023-05-12T07:02:05.638Z,15.37
2023-05-12T07:04:33.077Z,15.38
2023-05-12T07:06:59.965Z,15.40
2023-05-12T07:09:26.911Z,15.53
2023-05-12T07:11:54.371Z,15.68
2023-05-12T07:14:21.182Z,15.87
2023-05-12T07:16:48.066Z,16.07
2023-05-12T07:19:15.236Z,16.32
2023-05-12T07:21:42.208Z,16.49
2023-05-12T07:24:09.174Z,16.64
2023-05-12T07:26:36.101Z,16.75
2023-05-12T07:29:04.082Z,16.75
2023-05-12T07:31:31.599Z,16.83
2023-05-12T07:33:58.899Z,16.85
2023-05-12T07:36:25.916Z,17.09
2023-05-12T07:38:52.802Z,17.14
2023-05-12T07:41:19.779Z,17.14
2023-05-12T07:43:46.649Z,17.22
2023-05-12T07:46:13.681Z,17.26
2023-05-12T07:48:40.751Z,17.28
2023-05-12T07:51:12.630Z,17.14
2023-05-12T07:53:44.827Z,17.09
2023-05-12T07:56:11.732Z,17.21
2023-05-12T07:58:38.645Z,17.15
2023-05-12T08:01:06.905Z,17.28
2023-05-12T08:03:35.127Z,17.50
2023-05-12T08:06:03.570Z,17.91
2023-05-12T08:08:30.464Z,18.21
2023-05-12T08:10:57.356Z,18.40
2023-05-12T08:13:24.344Z,18.54
2023-05-12T08:15:51.728Z,18.41
2023-05-12T08:18:18.712Z,18.42
2023-05-12T08:20:45.994Z,18.57
2023-05-12T08:23:13.014Z,18.80
2023-05-12T08:25:41.249Z,18.90
2023-05-12T08:28:08.120Z,18.89
2023-05-12T08:30:36.885Z,18.84
2023-05-12T08:33:04.482Z,19.04
2023-05-12T08:35:32.156Z,19.34
2023-05-12T08:37:59.744Z,19.50
2023-05-12T08:40:30.784Z,19.33
2023-05-12T08:43:22.735Z,19.53
2023-05-12T08:45:50.066Z,19.73
2023-05-12T08:48:20.086Z,20.04
2023-05-12T08:50:50.906Z,19.95
2023-05-12T08:53:22.241Z,19.90
2023-05-12T08:57:08.297Z,20.13
2023-05-12T08:58:41.770Z,20.38
2023-05-12T09:01:11.928Z,20.26
2023-05-12T09:03:39.150Z,20.29
2023-05-12T09:06:06.866Z,20.23
2023-05-12T09:08:36.094Z,20.27
2023-05-12T09:11:03.797Z,20.29
2023-05-12T09:13:40.342Z,20.28
2023-05-12T09:16:12.157Z,20.31
2023-05-12T09:18:53.004Z,20.23
2023-05-12T09:21:21.107Z,20.22
2023-05-12T09:23:57.109Z,20.17
2023-05-12T09:26:25.953Z,20.21
2023-05-12T09:28:54.555Z,20.26
2023-05-12T09:31:23.223Z,20.20
2023-05-12T09:33:53.113Z,20.41
2023-05-12T09:36:24.569Z,20.42
2023-05-12T09:39:07.229Z,20.67
2023-05-12T09:41:41.984Z,20.52
2023-05-12T09:44:10.438Z,20.70
2023-05-12T09:46:39.833Z,20.89
2023-05-12T09:49:07.028Z,20.69
2023-05-12T09:51:34.109Z,20.99
2023-05-12T09:54:01.407Z,21.16
2023-05-12T09:56:29.906Z,20.94
2023-05-12T09:58:57.703Z,20.95
2023-05-12T10:01:25.749Z,20.94
2023-05-12T10:03:55.907Z,21.24
2023-05-12T10:06:32.598Z,21.14
2023-05-12T10:09:03.764Z,20.96
2023-05-12T10:11:31.559Z,20.96
2023-05-12T10:14:00.297Z,21.03
2023-05-12T10:16:30.563Z,21.29
2023-05-12T10:18:58.679Z,21.34
2023-05-12T10:21:26.231Z,21.19
2023-05-12T10:23:54.573Z,21.06
2023-05-12T10:26:23.359Z,21.21
2023-05-12T10:28:52.291Z,21.39
2023-05-12T10:31:20.340Z,21.26
2023-05-12T10:34:00.868Z,21.62
2023-05-12T10:36:28.805Z,21.87
2023-05-12T10:38:56.790Z,21.86
2023-05-12T10:41:31.565Z,22.24
2023-05-12T10:43:58.868Z,22.20
2023-05-12T10:46:27.261Z,22.39
2023-05-12T10:48:55.939Z,22.49
2023-05-12T10:51:28.509Z,22.32
2023-05-12T10:54:04.231Z,22.17
2023-05-12T10:56:43.647Z,21.67
2023-05-12T10:59:14.137Z,21.57
2023-05-12T11:01:43.101Z,21.44
2023-05-12T11:04:15.586Z,21.38
2023-05-12T11:06:45.205Z,21.26
2023-05-12T11:09:13.309Z,21.22
2023-05-12T11:11:40.690Z,21.25
2023-05-12T11:14:09.617Z,21.44
2023-05-12T11:16:43.319Z,21.45
2023-05-12T11:19:10.742Z,21.57
2023-05-12T11:21:38.630Z,21.49
2023-05-12T11:24:06.032Z,21.94
2023-05-12T11:26:34.471Z,22.20
2023-05-12T11:29:04.321Z,22.22
2023-05-12T11:31:31.273Z,22.07
2023-05-12T11:34:12.734Z,22.04
2023-05-12T11:36:42.875Z,22.27
2023-05-12T11:39:20.991Z,22.21
2023-05-12T11:41:50.161Z,22.14
2023-05-12T11:44:20.398Z,22.40
2023-05-12T11:46:55.217Z,22.53
2023-05-12T11:49:22.216Z,22.78
2023-05-12T11:51:51.918Z,22.84
2023-05-12T11:54:18.986Z,22.66
2023-05-12T11:56:53.315Z,22.22
2023-05-12T11:59:28.095Z,22.20
2023-05-12T12:01:55.299Z,22.47
2023-05-12T12:04:34.246Z,22.96
2023-05-12T12:07:01.646Z,22.71
2023-05-12T12:09:36.404Z,22.15
2023-05-12T12:12:05.207Z,22.14
2023-05-12T12:14:33.450Z,22.37
2023-05-12T12:17:00.578Z,22.41
2023-05-12T12:19:28.479Z,22.47
2023-05-12T12:21:56.399Z,22.03
2023-05-12T12:24:23.884Z,21.62
2023-05-12T12:26:51.214Z,21.65
2023-05-12T12:29:18.723Z,21.86
2023-05-12T12:31:45.945Z,21.69
2023-05-12T12:34:12.810Z,21.77
2023-05-12T12:36:39.676Z,21.95
2023-05-12T12:39:06.897Z,22.06
2023-05-12T12:41:34.440Z,22.45
2023-05-12T12:44:01.747Z,21.81
2023-05-12T12:46:28.600Z,21.56
2023-05-12T12:48:57.367Z,21.55
2023-05-12T12:51:26.859Z,21.66
2023-05-12T12:53:59.555Z,21.69
2023-05-12T12:56:26.491Z,21.74
2023-05-12T12:58:53.598Z,21.59
2023-05-12T13:01:20.655Z,21.53
2023-05-12T13:03:47.549Z,21.23
2023-05-12T13:06:14.472Z,20.89
2023-05-12T13:08:42.413Z,20.84
2023-05-12T13:11:09.832Z,21.25
2023-05-12T13:13:37.639Z,21.45
2023-05-12T13:16:04.958Z,21.61
2023-05-12T13:18:31.857Z,21.88
2023-05-12T13:20:59.507Z,21.96
2023-05-12T13:23:26.341Z,22.21
2023-05-12T13:25:53.382Z,22.23
2023-05-12T13:28:20.324Z,22.32
2023-05-12T13:30:47.226Z,22.53
2023-05-12T13:33:14.401Z,22.56
2023-05-12T13:35:41.368Z,22.73
2023-05-12T13:38:10.133Z,22.94
2023-05-12T13:40:37.513Z,22.64
2023-05-12T13:43:04.413Z,22.47
2023-05-12T13:45:31.489Z,22.53
2023-05-12T13:47:58.382Z,22.20
2023-05-12T13:50:25.398Z,22.58
2023-05-12T13:52:52.386Z,22.65
2023-05-12T13:55:21.704Z,22.44
2023-05-12T13:57:49.348Z,22.49
2023-05-12T14:00:17.396Z,22.26
2023-05-12T14:02:44.783Z,22.08
2023-05-12T14:05:12.047Z,21.82
2023-05-12T14:07:38.930Z,21.43
2023-05-12T14:10:06.491Z,21.20
2023-05-12T14:12:33.851Z,20.95
2023-05-12T14:15:15.737Z,21.35
2023-05-12T14:17:48.175Z,21.86
2023-05-12T14:20:15.258Z,21.96
2023-05-12T14:22:42.323Z,22.34
2023-05-12T14:25:09.520Z,23.07
2023-05-12T14:27:36.424Z,22.97
2023-05-12T14:30:04.260Z,22.56
2023-05-12T14:32:31.523Z,22.51
2023-05-12T14:34:58.443Z,22.17
2023-05-12T14:37:25.506Z,21.91
2023-05-12T14:39:55.276Z,21.81
2023-05-12T14:42:22.369Z,21.56
2023-05-12T14:44:49.289Z,21.19
2023-05-12T14:47:16.506Z,21.34
2023-05-12T14:49:45.492Z,21.66
2023-05-12T14:54:39.560Z,22.01
2023-05-12T14:57:06.674Z,22.03
2023-05-12T14:59:33.994Z,21.98
2023-05-12T15:02:00.955Z,22.13
2023-05-12T15:04:27.990Z,22.22
2023-05-12T15:06:54.925Z,22.28
2023-05-12T15:09:21.758Z,21.90
2023-05-12T15:11:49.576Z,21.63
2023-05-12T15:14:16.398Z,21.55
2023-05-12T15:16:43.451Z,21.39
2023-05-12T15:19:10.561Z,21.26
2023-05-12T15:21:37.500Z,21.24
2023-05-12T15:24:04.538Z,21.32
2023-05-12T15:26:33.489Z,21.20
2023-05-12T15:29:01.846Z,21.08
2023-05-12T15:31:30.302Z,21.21
2023-05-12T15:33:57.701Z,21.32
2023-05-12T15:36:24.675Z,21.40
2023-05-12T15:38:51.494Z,21.33
2023-05-12T15:41:18.614Z,21.26
2023-05-12T15:43:45.999Z,21.43
2023-05-12T15:46:13.158Z,21.25
2023-05-12T15:48:40.227Z,21.13
2023-05-12T15:51:07.329Z,20.96
2023-05-12T15:53:34.883Z,20.95
2023-05-12T15:56:03.310Z,20.94
2023-05-12T15:58:30.852Z,20.98
2023-05-12T16:00:57.917Z,21.03
2023-05-12T16:03:24.984Z,21.00
2023-05-12T16:05:52.663Z,21.04
2023-05-12T16:08:20.450Z,21.02
2023-05-12T16:10:48.355Z,21.21
2023-05-12T16:13:15.377Z,21.69
2023-05-12T16:15:42.847Z,22.05
2023-05-12T16:18:11.277Z,22.04
2023-05-12T16:20:39.187Z,22.10
2023-05-12T16:23:06.266Z,22.05
2023-05-12T16:25:33.461Z,22.25
2023-05-12T16:28:00.486Z,22.22
2023-05-12T16:30:27.588Z,21.79
2023-05-12T16:32:54.489Z,22.77
2023-05-12T16:35:21.949Z,22.94
2023-05-12T16:37:49.249Z,22.57
2023-05-12T16:40:16.537Z,22.43
2023-05-12T16:42:43.455Z,22.36
2023-05-12T16:45:11.225Z,22.76
2023-05-12T16:47:38.370Z,22.90
2023-05-12T16:50:06.303Z,22.68
2023-05-12T16:52:34.073Z,21.59
2023-05-12T16:55:01.002Z,21.18
2023-05-12T16:57:28.030Z,20.61
2023-05-12T16:59:54.855Z,20.57
2023-05-12T17:02:22.220Z,20.82
2023-05-12T17:04:49.352Z,21.17
2023-05-12T17:07:16.308Z,21.34
2023-05-12T17:09:43.155Z,21.45
2023-05-12T17:12:10.903Z,21.37
2023-05-12T17:14:37.993Z,21.04
2023-05-12T17:17:05.123Z,21.04
2023-05-12T17:19:33.705Z,20.69
2023-05-12T17:22:01.302Z,20.40
2023-05-12T17:24:28.149Z,20.39
2023-05-12T17:26:55.048Z,20.45
2023-05-12T17:29:21.795Z,20.34
2023-05-12T17:31:48.790Z,20.34
2023-05-12T17:34:15.701Z,20.21
2023-05-12T17:36:42.558Z,19.94
2023-05-12T17:39:09.452Z,19.72
2023-05-12T17:41:36.315Z,19.65
2023-05-12T17:44:04.094Z,19.55
2023-05-12T17:46:31.232Z,19.62
2023-05-12T17:48:58.215Z,19.54
2023-05-12T17:51:25.271Z,19.61
2023-05-12T17:53:52.259Z,19.51
2023-05-12T17:56:19.145Z,19.49
2023-05-12T17:58:46.821Z,19.42
2023-05-12T18:01:13.851Z,19.30
2023-05-12T18:03:40.805Z,19.25
2023-05-12T18:06:12.685Z,19.23
2023-05-12T18:08:40.009Z,19.22
2023-05-12T18:11:06.835Z,19.25
2023-05-12T18:13:34.391Z,19.20
2023-05-12T18:16:01.438Z,19.00
2023-05-12T18:18:28.408Z,18.80
2023-05-12T18:20:55.252Z,18.73
2023-05-12T18:23:22.204Z,18.57
2023-05-12T18:25:49.340Z,18.43
2023-05-12T18:28:16.246Z,18.37
2023-05-12T18:30:43.256Z,18.29
2023-05-12T18:33:10.230Z,18.08
2023-05-12T18:35:37.421Z,18.00
2023-05-12T18:38:04.335Z,17.93
2023-05-12T18:40:31.579Z,17.84
2023-05-12T18:42:58.571Z,17.76
2023-05-12T18:45:25.555Z,17.67
2023-05-12T18:47:52.527Z,17.57
2023-05-12T18:50:19.542Z,17.51
2023-05-12T18:52:46.533Z,17.44
2023-05-12T18:55:13.452Z,17.36
2023-05-12T18:57:40.442Z,17.28
2023-05-12T19:00:09.867Z,17.19
2023-05-12T19:02:37.605Z,17.14
2023-05-12T19:05:04.847Z,17.07
2023-05-12T19:07:31.755Z,17.00
2023-05-12T19:09:58.737Z,16.89
2023-05-12T19:12:25.983Z,16.80
2023-05-12T19:14:53.130Z,16.74
2023-05-12T19:17:19.988Z,16.63
2023-05-12T19:19:46.906Z,16.50
2023-05-12T19:22:13.839Z,16.42
2023-05-12T19:24:42.026Z,16.33
2023-05-12T19:27:11.045Z,16.22
2023-05-12T19:29:38.252Z,16.19
2023-05-12T19:32:05.950Z,16.14
2023-05-12T19:34:32.957Z,16.09
2023-05-12T19:37:01.212Z,16.02
2023-05-12T19:39:28.187Z,15.93
2023-05-12T19:41:55.099Z,15.84
2023-05-12T19:44:22.194Z,15.78
2023-05-12T19:46:49.202Z,15.76
2023-05-12T19:49:16.137Z,15.72
2023-05-12T19:51:43.020Z,15.67
2023-05-12T19:54:10.260Z,15.57
2023-05-12T19:56:37.449Z,15.55
2023-05-12T19:59:04.314Z,15.50
2023-05-12T20:01:31.330Z,15.42
2023-05-12T20:03:58.278Z,15.29
2023-05-12T20:06:25.234Z,15.19
2023-05-12T20:08:52.661Z,15.12
2023-05-12T20:11:20.543Z,15.07
2023-05-12T20:13:47.717Z,14.98
2023-05-12T20:16:14.611Z,14.90
2023-05-12T20:18:41.591Z,14.81
2023-05-12T20:21:08.634Z,14.75
2023-05-12T20:23:35.652Z,14.72
2023-05-12T20:26:02.797Z,14.69
2023-05-12T20:28:29.800Z,14.62
2023-05-12T20:30:56.959Z,14.56
2023-05-12T20:33:24.216Z,14.51
2023-05-12T20:35:51.108Z,14.45
2023-05-12T20:38:18.060Z,14.43
2023-05-12T20:40:45.264Z,14.39
2023-05-12T20:43:14.435Z,14.34
2023-05-12T20:45:41.674Z,14.32
2023-05-12T20:48:09.253Z,14.28
2023-05-12T20:50:36.318Z,14.22
2023-05-12T20:53:03.185Z,14.14
2023-05-12T20:55:32.277Z,14.12
2023-05-12T20:57:59.701Z,14.10
2023-05-12T21:00:26.574Z,14.06
2023-05-12T21:02:53.834Z,14.00
2023-05-12T21:05:21.159Z,14.04
2023-05-12T21:07:48.325Z,14.02
2023-05-12T21:10:15.301Z,13.94
2023-05-12T21:12:42.276Z,13.84
2023-05-12T21:15:10.467Z,13.75
2023-05-12T21:17:39.459Z,13.68
2023-05-12T21:20:08.918Z,13.65
2023-05-12T21:22:37.017Z,13.63
2023-05-12T21:25:05.187Z,13.57
2023-05-12T21:27:32.146Z,13.50
2023-05-12T21:29:59.266Z,13.45
2023-05-12T21:32:26.103Z,13.34
2023-05-12T21:34:53.697Z,13.28
2023-05-12T21:37:20.574Z,13.23
2023-05-12T21:39:47.369Z,13.21
2023-05-12T21:42:14.394Z,13.17
2023-05-12T21:44:42.454Z,13.13
2023-05-12T21:47:10.056Z,13.12
2023-05-12T21:49:37.060Z,13.09
2023-05-12T21:52:04.340Z,13.04
2023-05-12T21:54:34.495Z,12.99
2023-05-12T21:57:02.192Z,12.97
2023-05-12T21:59:29.395Z,12.97
2023-05-12T22:01:56.963Z,12.92
2023-05-12T22:04:23.999Z,12.91
2023-05-12T22:06:51.058Z,12.90
2023-05-12T22:09:18.509Z,12.86
2023-05-12T22:11:45.451Z,12.79
2023-05-12T22:14:12.334Z,12.71
2023-05-12T22:16:42.214Z,12.64
2023-05-12T22:19:10.437Z,12.57
2023-05-12T22:21:37.484Z,12.50
2023-05-12T22:24:04.595Z,12.43
2023-05-12T22:26:31.593Z,12.39
2023-05-12T22:28:58.885Z,12.35
2023-05-12T22:31:25.819Z,12.30
2023-05-12T22:33:52.702Z,12.29
2023-05-12T22:36:19.588Z,12.28
2023-05-12T22:38:46.491Z,12.25
2023-05-12T22:41:13.280Z,12.25
2023-05-12T22:43:40.447Z,12.24
2023-05-12T22:46:09.658Z,12.22
2023-05-12T22:48:39.375Z,12.19
2023-05-12T22:51:07.084Z,12.20
2023-05-12T22:53:36.908Z,12.22
2023-05-12T22:56:04.201Z,12.27
2023-05-12T22:58:31.480Z,12.28
2023-05-12T23:00:58.700Z,12.27
2023-05-12T23:03:25.712Z,12.28
2023-05-12T23:05:52.753Z,12.29
2023-05-12T23:08:19.705Z,12.29
2023-05-12T23:10:46.554Z,12.28
2023-05-12T23:13:13.391Z,12.33
2023-05-12T23:15:40.776Z,12.38
2023-05-12T23:18:07.786Z,12.39
2023-05-12T23:20:35.079Z,12.36
2023-05-12T23:23:02.081Z,12.32
2023-05-12T23:25:29.072Z,12.33
2023-05-12T23:27:55.917Z,12.31
2023-05-12T23:30:23.200Z,12.29
2023-05-12T23:32:50.593Z,12.25
2023-05-12T23:35:17.654Z,12.25
2023-05-12T23:37:44.697Z,12.27
2023-05-12T23:40:12.536Z,12.27
2023-05-12T23:42:40.213Z,12.29
2023-05-12T23:45:08.061Z,12.31
2023-05-12T23:47:35.513Z,12.28
2023-05-12T23:50:06.182Z,12.28
2023-05-12T23:52:33.063Z,12.31
2023-05-12T23:55:00.819Z,12.32
2023-05-12T23:57:27.867Z,12.31
2023-05-12T23:59:54.768Z,12.31
